Lora Ann — WDA7867 — position and weather

sailwx.info

Track history (hours):
 
Tides and Currents Weather Stations Pressure Air Temp Water Temp Dewpoint Dewpoint Depression Visibility Wind Speed Wind Dir Waves Ship Positions

Lora Ann

More information available from US FCC via Universal Licensing System.

Last reported at 2014-Jul-04 00:25 UTC. Time now 2014-Jul-24 21:40 UTC.
Position N 40°46' W 073°57'.
Warning: this ship's position is 20 days out of date.

Length 12 m.

Type: Sailing vessel. MMSI: 366848040.

Date/timePositionNaut miles runAvg speedWind from/ knotsBaromVisibWave heightAir tempDewpointWater temp
2014-Jul-04 00:25N 40°46' W 073°57'4 4.4
2014-Jul-03 23:33N 40°42' W 073°60'22 5.1
2014-Jul-03 19:15N 40°22' W 073°50'5 6.6
2014-Jul-03 18:26N 40°17' W 073°47'6 6.4
2014-Jul-03 17:31N 40°12' W 073°43'7 6.9
2014-Jul-03 16:33N 40°06' W 073°40'9 6.6
2014-Jul-03 15:12N 39°58' W 073°34'11 6.0
2014-Jul-03 13:24N 39°48' W 073°28'83 6.3
2014-Jul-03 00:20N 38°34' W 072°39'5 6.4
2014-Jul-02 23:33N 38°30' W 072°37'7 7.1
2014-Jul-02 22:30N 38°23' W 072°32'8 8.0
2014-Jul-02 21:33N 38°17' W 072°27'8 7.1
2014-Jul-02 20:28N 38°11' W 072°21'  
Track history (hours):
 
Tides and Currents Weather Stations Pressure Air Temp Water Temp Dewpoint Dewpoint Depression Visibility Wind Speed Wind Dir Waves Ship Positions

Lora Ann

More information available from US FCC via Universal Licensing System.

Last reported at 2014-Jul-04 00:25 UTC. Time now 2014-Jul-24 21:40 UTC.
Position N 40°46' W 073°57'.
Warning: this ship's position is 20 days out of date.

Length 12 m.

Type: Sailing vessel. MMSI: 366848040.

Date/timePositionNaut miles runAvg speedWind from/ knotsBaromVisibWave heightAir tempDewpointWater temp
2014-Jul-04 00:25N 40°46' W 073°57'4 4.4
2014-Jul-03 23:33N 40°42' W 073°60'22 5.1
2014-Jul-03 19:15N 40°22' W 073°50'5 6.6
2014-Jul-03 18:26N 40°17' W 073°47'6 6.4
2014-Jul-03 17:31N 40°12' W 073°43'7 6.9
2014-Jul-03 16:33N 40°06' W 073°40'9 6.6
2014-Jul-03 15:12N 39°58' W 073°34'11 6.0
2014-Jul-03 13:24N 39°48' W 073°28'83 6.3
2014-Jul-03 00:20N 38°34' W 072°39'5 6.4
2014-Jul-02 23:33N 38°30' W 072°37'7 7.1
2014-Jul-02 22:30N 38°23' W 072°32'8 8.0
2014-Jul-02 21:33N 38°17' W 072°27'8 7.1
2014-Jul-02 20:28N 38°11' W 072°21'  

Dump ship's entire track history